CFG2010 WARR-WADD
Flight info
| Callsign | CFG2010 |
|---|---|
| Flight time | 0h 35m |
| Altitude | 23000 |
| Route | MOVMO |
| Aircraft | A20N/M-SDE2E3FGHIRWXY/LB1 |
Departure
| Time | 2026-05-08 06:51 |
|---|---|
| Airport | Juanda International Airport (WARR) |
Arrival
| Time | 2026-05-08 07:26 |
|---|---|
| Airport | Denpasar I Gusti Ngurah Rai International Airport (WADD) |
| Time | Latitude | Longitude | Altitude | Speed | Heading |
|---|---|---|---|---|---|
| 2026-05-08 06:31 | -7.37620 | 112.79646 | 9 ft | 0 kts | 9° |
| 2026-05-08 06:42 | -7.37643 | 112.79642 | 7 ft | 4 kts | 6° |
| 2026-05-08 06:43 | -7.37670 | 112.79641 | 9 ft | 4 kts | 358° |
| 2026-05-08 06:43 | -7.37696 | 112.79644 | 10 ft | 4 kts | 332° |
| 2026-05-08 06:43 | -7.37709 | 112.79657 | 9 ft | 1 kts | 279° |
| 2026-05-08 06:43 | -7.37710 | 112.79661 | 11 ft | 0 kts | 279° |
| 2026-05-08 06:45 | -7.37707 | 112.79643 | 11 ft | 8 kts | 279° |
| 2026-05-08 06:46 | -7.37693 | 112.79554 | 9 ft | 16 kts | 278° |
| 2026-05-08 06:46 | -7.37673 | 112.79424 | 9 ft | 21 kts | 279° |
| 2026-05-08 06:46 | -7.37648 | 112.79267 | 9 ft | 24 kts | 279° |
| 2026-05-08 06:46 | -7.37628 | 112.79114 | 9 ft | 11 kts | 250° |
| 2026-05-08 06:47 | -7.37688 | 112.79069 | 9 ft | 10 kts | 251° |
| 2026-05-08 06:47 | -7.37677 | 112.79017 | 9 ft | 10 kts | 280° |
| 2026-05-08 06:47 | -7.37672 | 112.78933 | 9 ft | 14 kts | 254° |
| 2026-05-08 06:47 | -7.37760 | 112.78889 | 9 ft | 17 kts | 188° |
| 2026-05-08 06:48 | -7.37827 | 112.78810 | 9 ft | 18 kts | 276° |
| 2026-05-08 06:48 | -7.37805 | 112.78670 | 8 ft | 22 kts | 279° |
| 2026-05-08 06:48 | -7.37777 | 112.78507 | 9 ft | 25 kts | 279° |
| 2026-05-08 06:48 | -7.37749 | 112.78325 | 9 ft | 26 kts | 278° |
| 2026-05-08 06:49 | -7.37718 | 112.78133 | 10 ft | 29 kts | 279° |
| 2026-05-08 06:49 | -7.37684 | 112.77926 | 9 ft | 31 kts | 279° |
| 2026-05-08 06:49 | -7.37653 | 112.77734 | 9 ft | 27 kts | 279° |
| 2026-05-08 06:49 | -7.37622 | 112.77537 | 8 ft | 26 kts | 279° |
| 2026-05-08 06:50 | -7.37605 | 112.77424 | 8 ft | 17 kts | 269° |
| 2026-05-08 06:50 | -7.37691 | 112.77377 | 8 ft | 16 kts | 190° |
| 2026-05-08 06:50 | -7.37782 | 112.77428 | 9 ft | 20 kts | 102° |
| 2026-05-08 06:50 | -7.37840 | 112.77808 | 9 ft | 90 kts | 99° |
| 2026-05-08 06:51 | -7.37972 | 112.78625 | 31 ft | 140 kts | 98° |
| 2026-05-08 06:51 | -7.38120 | 112.79567 | 618 ft | 133 kts | 96° |
| 2026-05-08 06:51 | -7.38225 | 112.80530 | 1088 ft | 145 kts | 95° |
| 2026-05-08 06:51 | -7.38357 | 112.81581 | 1585 ft | 155 kts | 98° |
| 2026-05-08 06:52 | -7.38532 | 112.82662 | 2060 ft | 156 kts | 99° |
| 2026-05-08 06:52 | -7.38699 | 112.83779 | 2526 ft | 166 kts | 97° |
| 2026-05-08 06:52 | -7.38857 | 112.84973 | 3047 ft | 180 kts | 99° |
| 2026-05-08 06:52 | -7.39091 | 112.86287 | 3523 ft | 204 kts | 101° |
| 2026-05-08 06:53 | -7.39369 | 112.87755 | 4143 ft | 224 kts | 101° |
| 2026-05-08 06:53 | -7.39662 | 112.89355 | 4758 ft | 246 kts | 101° |
| 2026-05-08 06:53 | -7.39977 | 112.91122 | 5393 ft | 267 kts | 101° |
| 2026-05-08 06:53 | -7.40307 | 112.92983 | 6318 ft | 272 kts | 101° |
| 2026-05-08 06:54 | -7.40692 | 112.94867 | 7186 ft | 276 kts | 103° |
| 2026-05-08 06:54 | -7.41117 | 112.96780 | 8084 ft | 282 kts | 103° |
| 2026-05-08 06:54 | -7.41556 | 112.98723 | 9034 ft | 285 kts | 103° |
| 2026-05-08 06:54 | -7.41997 | 113.00695 | 9933 ft | 291 kts | 103° |
| 2026-05-08 06:55 | -7.42437 | 113.02684 | 10596 ft | 303 kts | 103° |
| 2026-05-08 06:55 | -7.42907 | 113.04836 | 10891 ft | 327 kts | 103° |
| 2026-05-08 06:55 | -7.43419 | 113.07156 | 11284 ft | 347 kts | 103° |
| 2026-05-08 06:55 | -7.43938 | 113.09546 | 12073 ft | 351 kts | 104° |
| 2026-05-08 06:56 | -7.44841 | 113.11830 | 12829 ft | 353 kts | 123° |
| 2026-05-08 06:56 | -7.46489 | 113.13684 | 13438 ft | 359 kts | 142° |
| 2026-05-08 06:56 | -7.48504 | 113.15189 | 14148 ft | 362 kts | 145° |
| 2026-05-08 06:56 | -7.50574 | 113.16640 | 14905 ft | 363 kts | 146° |
| 2026-05-08 06:57 | -7.52667 | 113.18105 | 15537 ft | 369 kts | 145° |
| 2026-05-08 06:57 | -7.54745 | 113.19583 | 16299 ft | 370 kts | 146° |
| 2026-05-08 06:57 | -7.56861 | 113.21107 | 17012 ft | 375 kts | 145° |
| 2026-05-08 06:57 | -7.58994 | 113.22655 | 17655 ft | 379 kts | 145° |
| 2026-05-08 06:58 | -7.61146 | 113.24213 | 18239 ft | 383 kts | 145° |
| 2026-05-08 06:58 | -7.63332 | 113.25798 | 18752 ft | 388 kts | 145° |
| 2026-05-08 06:58 | -7.65508 | 113.27382 | 19313 ft | 390 kts | 145° |
| 2026-05-08 06:58 | -7.67724 | 113.28996 | 19851 ft | 395 kts | 145° |
| 2026-05-08 06:59 | -7.69971 | 113.30630 | 20320 ft | 399 kts | 145° |
| 2026-05-08 06:59 | -7.72237 | 113.32280 | 20796 ft | 404 kts | 145° |
| 2026-05-08 06:59 | -7.74527 | 113.33948 | 21314 ft | 408 kts | 145° |
| 2026-05-08 06:59 | -7.76056 | 113.35063 | 21652 ft | 410 kts | 145° |
| 2026-05-08 07:00 | -7.78387 | 113.36761 | 22172 ft | 414 kts | 145° |
| 2026-05-08 07:00 | -7.80728 | 113.38463 | 22629 ft | 418 kts | 145° |
| 2026-05-08 07:00 | -7.83105 | 113.40192 | 22806 ft | 421 kts | 145° |
| 2026-05-08 07:00 | -7.85472 | 113.41917 | 22838 ft | 420 kts | 145° |
| 2026-05-08 07:01 | -7.87853 | 113.43656 | 22839 ft | 421 kts | 145° |
| 2026-05-08 07:01 | -7.90218 | 113.45383 | 22835 ft | 420 kts | 145° |
| 2026-05-08 07:01 | -7.92594 | 113.47114 | 22837 ft | 420 kts | 145° |
| 2026-05-08 07:01 | -7.94968 | 113.48839 | 22839 ft | 421 kts | 146° |
| 2026-05-08 07:02 | -7.97310 | 113.50542 | 22840 ft | 419 kts | 145° |
| 2026-05-08 07:02 | -7.99679 | 113.52271 | 22841 ft | 421 kts | 145° |
| 2026-05-08 07:02 | -8.02054 | 113.54007 | 22840 ft | 422 kts | 145° |
| 2026-05-08 07:02 | -8.04437 | 113.55748 | 22840 ft | 422 kts | 146° |
| 2026-05-08 07:03 | -8.06812 | 113.57480 | 22844 ft | 422 kts | 146° |
| 2026-05-08 07:03 | -8.09187 | 113.59215 | 22840 ft | 422 kts | 146° |
| 2026-05-08 07:03 | -8.11560 | 113.60951 | 22841 ft | 422 kts | 146° |
| 2026-05-08 07:03 | -8.13935 | 113.62688 | 22845 ft | 422 kts | 146° |
| 2026-05-08 07:04 | -8.16322 | 113.64427 | 22845 ft | 422 kts | 146° |
| 2026-05-08 07:04 | -8.18696 | 113.66156 | 22845 ft | 422 kts | 146° |
| 2026-05-08 07:04 | -8.21080 | 113.67894 | 22837 ft | 422 kts | 145° |
| 2026-05-08 07:04 | -8.23456 | 113.69630 | 22836 ft | 422 kts | 145° |
| 2026-05-08 07:05 | -8.25833 | 113.71368 | 22835 ft | 423 kts | 146° |
| 2026-05-08 07:05 | -8.28193 | 113.73086 | 22837 ft | 421 kts | 146° |
| 2026-05-08 07:05 | -8.30564 | 113.74811 | 22837 ft | 420 kts | 145° |
| 2026-05-08 07:05 | -8.32949 | 113.76553 | 22845 ft | 422 kts | 146° |
| 2026-05-08 07:06 | -8.35327 | 113.78295 | 22840 ft | 423 kts | 146° |
| 2026-05-08 07:06 | -8.37699 | 113.80034 | 22696 ft | 421 kts | 146° |
| 2026-05-08 07:06 | -8.40086 | 113.81780 | 22249 ft | 422 kts | 146° |
| 2026-05-08 07:06 | -8.42432 | 113.83490 | 21705 ft | 418 kts | 146° |
| 2026-05-08 07:07 | -8.44776 | 113.85207 | 21166 ft | 412 kts | 146° |
| 2026-05-08 07:07 | -8.47086 | 113.86897 | 20639 ft | 405 kts | 146° |
| 2026-05-08 07:07 | -8.49358 | 113.88558 | 20137 ft | 399 kts | 146° |
| 2026-05-08 07:07 | -8.51602 | 113.90197 | 19649 ft | 397 kts | 146° |
| 2026-05-08 07:08 | -8.53800 | 113.91803 | 19172 ft | 392 kts | 146° |
| 2026-05-08 07:08 | -8.55994 | 113.93411 | 18714 ft | 389 kts | 146° |
| 2026-05-08 07:08 | -8.58161 | 113.95022 | 18255 ft | 383 kts | 143° |
| 2026-05-08 07:08 | -8.60024 | 113.96932 | 17759 ft | 381 kts | 130° |
| 2026-05-08 07:09 | -8.61408 | 113.99215 | 17246 ft | 380 kts | 116° |
| 2026-05-08 07:09 | -8.62313 | 114.01715 | 16765 ft | 377 kts | 110° |
| 2026-05-08 07:09 | -8.63145 | 114.04213 | 16283 ft | 372 kts | 110° |
| 2026-05-08 07:09 | -8.63959 | 114.06664 | 15819 ft | 366 kts | 111° |
| 2026-05-08 07:10 | -8.64771 | 114.09095 | 15364 ft | 362 kts | 111° |
| 2026-05-08 07:10 | -8.65563 | 114.11458 | 14941 ft | 357 kts | 111° |
| 2026-05-08 07:10 | -8.66358 | 114.13837 | 14496 ft | 354 kts | 110° |
| 2026-05-08 07:10 | -8.67143 | 114.16180 | 14077 ft | 350 kts | 111° |
| 2026-05-08 07:11 | -8.67919 | 114.18496 | 13669 ft | 345 kts | 111° |
| 2026-05-08 07:11 | -8.68686 | 114.20787 | 13225 ft | 342 kts | 111° |
| 2026-05-08 07:11 | -8.69444 | 114.23039 | 12907 ft | 334 kts | 110° |
| 2026-05-08 07:11 | -8.70186 | 114.25242 | 12623 ft | 327 kts | 110° |
| 2026-05-08 07:12 | -8.70906 | 114.27395 | 12342 ft | 319 kts | 110° |
| 2026-05-08 07:12 | -8.71602 | 114.29470 | 12080 ft | 312 kts | 110° |
| 2026-05-08 07:12 | -8.72292 | 114.31524 | 11813 ft | 305 kts | 110° |
| 2026-05-08 07:12 | -8.72967 | 114.33541 | 11554 ft | 300 kts | 110° |
| 2026-05-08 07:13 | -8.73631 | 114.35541 | 11308 ft | 300 kts | 109° |
| 2026-05-08 07:13 | -8.74298 | 114.37544 | 11069 ft | 298 kts | 109° |
| 2026-05-08 07:13 | -8.74959 | 114.39520 | 10788 ft | 298 kts | 109° |
| 2026-05-08 07:13 | -8.75627 | 114.41509 | 10482 ft | 297 kts | 109° |
| 2026-05-08 07:14 | -8.76284 | 114.43468 | 10188 ft | 293 kts | 109° |
| 2026-05-08 07:14 | -8.76931 | 114.45407 | 9894 ft | 289 kts | 109° |
| 2026-05-08 07:14 | -8.77582 | 114.47347 | 9585 ft | 292 kts | 109° |
| 2026-05-08 07:14 | -8.78234 | 114.49287 | 9262 ft | 290 kts | 108° |
| 2026-05-08 07:15 | -8.78872 | 114.51199 | 8953 ft | 285 kts | 108° |
| 2026-05-08 07:15 | -8.79505 | 114.53075 | 8647 ft | 280 kts | 109° |
| 2026-05-08 07:15 | -8.80126 | 114.54939 | 8343 ft | 279 kts | 108° |
| 2026-05-08 07:15 | -8.80734 | 114.56778 | 8046 ft | 277 kts | 108° |
| 2026-05-08 07:16 | -8.81342 | 114.58614 | 7755 ft | 273 kts | 108° |
| 2026-05-08 07:16 | -8.81943 | 114.60419 | 7463 ft | 268 kts | 108° |
| 2026-05-08 07:16 | -8.82538 | 114.62204 | 7183 ft | 269 kts | 108° |
| 2026-05-08 07:16 | -8.83133 | 114.63999 | 6902 ft | 268 kts | 108° |
| 2026-05-08 07:17 | -8.83724 | 114.65778 | 6633 ft | 264 kts | 108° |
| 2026-05-08 07:17 | -8.84262 | 114.67537 | 6376 ft | 259 kts | 100° |
| 2026-05-08 07:17 | -8.84276 | 114.69337 | 6109 ft | 256 kts | 81° |
| 2026-05-08 07:17 | -8.83712 | 114.71015 | 5837 ft | 257 kts | 69° |
| 2026-05-08 07:18 | -8.83007 | 114.72697 | 5563 ft | 261 kts | 69° |
| 2026-05-08 07:18 | -8.82307 | 114.74385 | 5296 ft | 258 kts | 69° |
| 2026-05-08 07:18 | -8.81623 | 114.76044 | 5023 ft | 254 kts | 69° |
| 2026-05-08 07:18 | -8.80943 | 114.77697 | 4759 ft | 256 kts | 69° |
| 2026-05-08 07:19 | -8.80263 | 114.79356 | 4479 ft | 253 kts | 70° |
| 2026-05-08 07:19 | -8.79595 | 114.80986 | 4208 ft | 250 kts | 70° |
| 2026-05-08 07:19 | -8.78931 | 114.82611 | 3957 ft | 250 kts | 70° |
| 2026-05-08 07:19 | -8.78266 | 114.84239 | 3688 ft | 250 kts | 69° |
| 2026-05-08 07:20 | -8.77602 | 114.85844 | 3432 ft | 253 kts | 70° |
| 2026-05-08 07:20 | -8.76919 | 114.87450 | 3158 ft | 251 kts | 68° |
| 2026-05-08 07:20 | -8.76238 | 114.89096 | 3018 ft | 250 kts | 70° |
| 2026-05-08 07:20 | -8.75675 | 114.90698 | 2981 ft | 233 kts | 79° |
| 2026-05-08 07:21 | -8.75452 | 114.92281 | 2799 ft | 224 kts | 89° |
| 2026-05-08 07:21 | -8.75477 | 114.93831 | 2619 ft | 217 kts | 92° |
| 2026-05-08 07:21 | -8.75498 | 114.95331 | 2502 ft | 208 kts | 93° |
| 2026-05-08 07:21 | -8.75508 | 114.96747 | 2498 ft | 195 kts | 92° |
| 2026-05-08 07:22 | -8.75513 | 114.98109 | 2504 ft | 191 kts | 92° |
| 2026-05-08 07:22 | -8.75519 | 114.99401 | 2510 ft | 182 kts | 92° |
| 2026-05-08 07:22 | -8.75507 | 115.00659 | 2503 ft | 171 kts | 90° |
| 2026-05-08 07:22 | -8.75460 | 115.01854 | 2478 ft | 174 kts | 89° |
| 2026-05-08 07:23 | -8.75401 | 115.03059 | 2298 ft | 174 kts | 88° |
| 2026-05-08 07:23 | -8.75336 | 115.04310 | 2093 ft | 176 kts | 89° |
| 2026-05-08 07:23 | -8.75282 | 115.05509 | 1917 ft | 169 kts | 89° |
| 2026-05-08 07:23 | -8.75235 | 115.06678 | 1725 ft | 164 kts | 89° |
| 2026-05-08 07:24 | -8.75190 | 115.07804 | 1603 ft | 152 kts | 89° |
| 2026-05-08 07:24 | -8.75137 | 115.08803 | 1494 ft | 141 kts | 91° |
| 2026-05-08 07:24 | -8.75078 | 115.09727 | 1380 ft | 124 kts | 97° |
| 2026-05-08 07:24 | -8.75064 | 115.10558 | 1208 ft | 110 kts | 95° |
| 2026-05-08 07:25 | -8.75089 | 115.11407 | 905 ft | 133 kts | 90° |
| 2026-05-08 07:25 | -8.75052 | 115.12318 | 670 ft | 124 kts | 88° |
| 2026-05-08 07:25 | -8.74915 | 115.13898 | 372 ft | 115 kts | 97° |
| 2026-05-08 07:26 | -8.74914 | 115.14699 | 226 ft | 112 kts | 92° |
| 2026-05-08 07:26 | -8.74888 | 115.15501 | 50 ft | 117 kts | 90° |
| 2026-05-08 07:26 | -8.74865 | 115.16250 | 28 ft | 87 kts | 88° |
| 2026-05-08 07:26 | -8.74848 | 115.16657 | 27 ft | 28 kts | 84° |
| 2026-05-08 07:27 | -8.74800 | 115.16777 | 27 ft | 18 kts | 61° |
| 2026-05-08 07:27 | -8.74744 | 115.16861 | 29 ft | 12 kts | 33° |
| 2026-05-08 07:27 | -8.74699 | 115.16869 | 31 ft | 5 kts | 2° |
| 2026-05-08 07:27 | -8.74672 | 115.16893 | 32 ft | 6 kts | 82° |
| 2026-05-08 07:28 | -8.74661 | 115.16933 | 32 ft | 7 kts | 44° |
| 2026-05-08 07:28 | -8.74606 | 115.16936 | 30 ft | 10 kts | 353° |
| 2026-05-08 07:28 | -8.74563 | 115.16935 | 33 ft | 3 kts | 357° |
| 2026-05-08 07:28 | -8.74543 | 115.16934 | 33 ft | 3 kts | 358° |
| 2026-05-08 07:29 | -8.74538 | 115.16933 | 33 ft | 0 kts | 358° |